Alford, MA

5:50 AM EDT on September 30, 2014 (GMT -0400)
GB Anderson St | Change Station
CLOSE
Current Station
Personal Weather Station
Location: Great Barrington, MA
Elevation: 715 ft
Nearby Weather Stations

Elev 715 ft 42.20 °N, 73.35 °W | Updated 2 minutes ago

Overcast
Overcast
59.3 °F
Feels Like 59.3 °F
N
2.0
Wind Variable Wind from WNW
Gusts 4.0 mph

Today
High -- | Low -- °F
--% Chance of Precip.
Yesterday
High -- | Low -- °F
Precip. -- in
6:49 AM 6:36 PM
Waxing Crescent, 35% visible
Pressure 29.92 in
Visibility 10.0 miles
Clouds Overcast 700 ft
Dew Point 57 °F
Humidity 91%
Rainfall 0.00 in
Snow Depth Not available.
UV 0 out of 12
Pollen 2.20 out of 12
PM2.5 Moderate
Flu Activity Not available.
METAR KPSF 300854Z AUTO VRB04KT 10SM OVC007 14/12 A2997 RMK AO2 SLP131 T01390122 55001

More Conditions Fewer Conditions

Pressure 29.92 in
Visibility 10.0 miles
Clouds Overcast 700 ft
Dew Point 57 °F
Humidity 91%
Rainfall 0.00 in
Snow Depth Not available.
UV 0 out of 12
Pollen 2.20 out of 12
PM2.5 Moderate
Flu Activity Not available.
METAR KPSF 300854Z AUTO VRB04KT 10SM OVC007 14/12 A2997 RMK AO2 SLP131 T01390122 55001

More Conditions Fewer Conditions

10-Day Weather Forecast

Almanac

Astronomy

Sep. 30, 2014 Rise Set
Actual Time 6:49 AM EDT 6:36 PM EDT
Civil Twilight 6:21 AM EDT 7:04 PM EDT
Nautical Twilight 5:48 AM EDT 7:37 PM EDT
Astronomical Twilight 5:15 AM EDT 8:09 PM EDT
Moon 12:59 PM EDT 10:59 PM EDT
Length of Visible Light 12h 43m
Length of Day
11h 47m
Tomorrow will be 2m 49s shorter.
Waxing Crescent, 35% of the Moon is Illuminated
Today
Waxing Crescent
Oct 1
First Quarter
Oct 8
Full
Oct 15
Last Quarter
Oct 23
New

Today's Extremes

State Highs State Lows

Community

WunderPhotos

Upload Photos

1,757,606 photos uploaded!

Nearby

Air Quality

  Air Quality AQ Index Pollutant
Yesterday Moderate
PM2.5
Current Moderate
PM2.5
Tuesday Good
PM2.5
Tuesday Good
OZONE

Snow Depth

Station Depth Elevation
No new snow has been reported.

Earthquake Activity

City Distance Mag. Time & Date
No recent earthquake activity has been reported nearby.
Minimum magnitude displayed is 2.5.

Coastal Water Temperatures

Place Temperature
No Stations Reporting

Nearby Weather Stations